Terminal Aerodrome Forecast
Issued by NWS Green Bay, WI

Home | Current Version | Previous Version | Graphics & Text | Print | Product List | Glossary On
Versions: 1 2 3 4 5 6 7 8 9 10 11 12 13 14 15 16 17 18 19 20 21 22 23 24 25 26 27 28 29
000
FTUS43 KGRB 242000 AAA
TAFGRB
TAF AMD
KGRB 242000Z 2420/2518 20005KT P6SM BKN009
      TEMPO 2421/2422 SCT008
     FM242200 20005KT P6SM SCT025
     FM250600 26005KT 5SM BR SCT012
     FM251300 29013KT P6SM SCT025=

USA.gov is the U.S. government's official web portal to all federal, state and local government web resources and services.